sensor_id;sensor_type;location;lat;lon;timestamp;P1;durP1;ratioP1;P2;durP2;ratioP2
63394;SDS011;49531;-34.520;150.798;2022-11-23T00:01:22;2.53;;;0.55;;
63394;SDS011;49531;-34.520;150.798;2022-11-23T00:03:53;2.00;;;0.65;;
63394;SDS011;49531;-34.520;150.798;2022-11-23T00:06:23;3.30;;;0.63;;
63394;SDS011;49531;-34.520;150.798;2022-11-23T00:08:52;1.67;;;0.50;;
63394;SDS011;49531;-34.520;150.798;2022-11-23T00:11:21;1.33;;;0.60;;
63394;SDS011;49531;-34.520;150.798;2022-11-23T00:13:50;2.00;;;0.63;;
63394;SDS011;49531;-34.520;150.798;2022-11-23T00:16:20;4.75;;;0.63;;
63394;SDS011;49531;-34.520;150.798;2022-11-23T00:18:51;1.52;;;0.63;;
63394;SDS011;49531;-34.520;150.798;2022-11-23T00:21:21;1.38;;;0.60;;
63394;SDS011;49531;-34.520;150.798;2022-11-23T00:23:51;0.63;;;0.50;;
63394;SDS011;49531;-34.520;150.798;2022-11-23T00:26:19;1.27;;;0.63;;
63394;SDS011;49531;-34.520;150.798;2022-11-23T00:28:47;1.73;;;0.63;;
63394;SDS011;49531;-34.520;150.798;2022-11-23T00:31:16;2.75;;;0.57;;
63394;SDS011;49531;-34.520;150.798;2022-11-23T00:33:50;2.58;;;0.70;;
63394;SDS011;49531;-34.520;150.798;2022-11-23T00:36:19;0.40;;;0.40;;
63394;SDS011;49531;-34.520;150.798;2022-11-23T00:38:49;3.53;;;0.70;;
63394;SDS011;49531;-34.520;150.798;2022-11-23T00:41:20;0.77;;;0.50;;
63394;SDS011;49531;-34.520;150.798;2022-11-23T00:43:49;3.25;;;0.65;;
63394;SDS011;49531;-34.520;150.798;2022-11-23T00:46:19;0.90;;;0.50;;
63394;SDS011;49531;-34.520;150.798;2022-11-23T00:48:50;2.20;;;0.65;;
63394;SDS011;49531;-34.520;150.798;2022-11-23T00:51:20;0.52;;;0.40;;
63394;SDS011;49531;-34.520;150.798;2022-11-23T00:53:50;0.70;;;0.45;;
63394;SDS011;49531;-34.520;150.798;2022-11-23T00:56:19;0.65;;;0.50;;
63394;SDS011;49531;-34.520;150.798;2022-11-23T00:58:48;1.55;;;0.50;;
63394;SDS011;49531;-34.520;150.798;2022-11-23T01:01:20;0.65;;;0.40;;
63394;SDS011;49531;-34.520;150.798;2022-11-23T01:03:52;1.23;;;0.60;;
63394;SDS011;49531;-34.520;150.798;2022-11-23T01:06:24;2.45;;;0.43;;
63394;SDS011;49531;-34.520;150.798;2022-11-23T01:08:54;0.75;;;0.45;;
63394;SDS011;49531;-34.520;150.798;2022-11-23T01:11:25;0.98;;;0.50;;
63394;SDS011;49531;-34.520;150.798;2022-11-23T01:13:55;1.98;;;0.60;;
63394;SDS011;49531;-34.520;150.798;2022-11-23T01:16:24;0.52;;;0.50;;
63394;SDS011;49531;-34.520;150.798;2022-11-23T01:18:56;1.40;;;0.60;;
63394;SDS011;49531;-34.520;150.798;2022-11-23T01:21:27;0.98;;;0.52;;
63394;SDS011;49531;-34.520;150.798;2022-11-23T01:23:56;0.93;;;0.50;;
63394;SDS011;49531;-34.520;150.798;2022-11-23T01:26:24;0.68;;;0.47;;
63394;SDS011;49531;-34.520;150.798;2022-11-23T01:28:53;1.10;;;0.60;;
63394;SDS011;49531;-34.520;150.798;2022-11-23T01:31:22;0.55;;;0.40;;
63394;SDS011;49531;-34.520;150.798;2022-11-23T01:33:52;1.00;;;0.50;;
63394;SDS011;49531;-34.520;150.798;2022-11-23T01:36:23;0.63;;;0.50;;
63394;SDS011;49531;-34.520;150.798;2022-11-23T01:38:54;0.95;;;0.50;;
63394;SDS011;49531;-34.520;150.798;2022-11-23T01:41:25;1.88;;;0.50;;
63394;SDS011;49531;-34.520;150.798;2022-11-23T01:43:54;1.45;;;0.50;;
63394;SDS011;49531;-34.520;150.798;2022-11-23T01:46:22;0.73;;;0.50;;
63394;SDS011;49531;-34.520;150.798;2022-11-23T01:48:52;1.23;;;0.60;;
63394;SDS011;49531;-34.520;150.798;2022-11-23T01:51:29;0.65;;;0.50;;
63394;SDS011;49531;-34.520;150.798;2022-11-23T01:54:06;1.27;;;0.60;;
63394;SDS011;49531;-34.520;150.798;2022-11-23T01:56:41;0.75;;;0.55;;
63394;SDS011;49531;-34.520;150.798;2022-11-23T01:59:14;0.50;;;0.40;;
63394;SDS011;49531;-34.520;150.798;2022-11-23T02:01:45;0.55;;;0.47;;
63394;SDS011;49531;-34.520;150.798;2022-11-23T02:04:15;1.30;;;0.60;;
63394;SDS011;49531;-34.520;150.798;2022-11-23T02:06:50;0.68;;;0.45;;
63394;SDS011;49531;-34.520;150.798;2022-11-23T02:09:20;1.40;;;0.50;;
63394;SDS011;49531;-34.520;150.798;2022-11-23T02:11:50;1.13;;;0.50;;
63394;SDS011;49531;-34.520;150.798;2022-11-23T02:14:18;3.72;;;0.45;;
63394;SDS011;49531;-34.520;150.798;2022-11-23T02:16:46;1.90;;;0.50;;
63394;SDS011;49531;-34.520;150.798;2022-11-23T02:19:18;0.90;;;0.50;;
63394;SDS011;49531;-34.520;150.798;2022-11-23T02:22:05;1.25;;;0.57;;
63394;SDS011;49531;-34.520;150.798;2022-11-23T02:24:41;0.47;;;0.47;;
63394;SDS011;49531;-34.520;150.798;2022-11-23T02:27:15;1.40;;;0.68;;
63394;SDS011;49531;-34.520;150.798;2022-11-23T02:29:43;2.25;;;0.47;;
63394;SDS011;49531;-34.520;150.798;2022-11-23T02:32:18;0.40;;;0.40;;
63394;SDS011;49531;-34.520;150.798;2022-11-23T02:34:50;0.43;;;0.40;;
63394;SDS011;49531;-34.520;150.798;2022-11-23T02:37:18;1.35;;;0.50;;
63394;SDS011;49531;-34.520;150.798;2022-11-23T02:39:47;1.00;;;0.52;;
63394;SDS011;49531;-34.520;150.798;2022-11-23T02:42:17;1.67;;;0.50;;
63394;SDS011;49531;-34.520;150.798;2022-11-23T02:44:56;1.65;;;0.60;;
63394;SDS011;49531;-34.520;150.798;2022-11-23T02:47:34;4.40;;;0.52;;
63394;SDS011;49531;-34.520;150.798;2022-11-23T02:50:03;2.95;;;0.90;;
63394;SDS011;49531;-34.520;150.798;2022-11-23T02:52:31;2.33;;;0.70;;
63394;SDS011;49531;-34.520;150.798;2022-11-23T02:54:59;0.98;;;0.70;;
63394;SDS011;49531;-34.520;150.798;2022-11-23T02:57:27;0.95;;;0.45;;
63394;SDS011;49531;-34.520;150.798;2022-11-23T02:59:55;0.73;;;0.47;;
63394;SDS011;49531;-34.520;150.798;2022-11-23T03:02:24;0.88;;;0.60;;
63394;SDS011;49531;-34.520;150.798;2022-11-23T03:04:52;0.63;;;0.40;;
63394;SDS011;49531;-34.520;150.798;2022-11-23T03:07:20;0.40;;;0.40;;
63394;SDS011;49531;-34.520;150.798;2022-11-23T03:09:48;0.40;;;0.40;;
63394;SDS011;49531;-34.520;150.798;2022-11-23T03:12:16;1.00;;;0.47;;
63394;SDS011;49531;-34.520;150.798;2022-11-23T03:14:44;1.08;;;0.63;;
63394;SDS011;49531;-34.520;150.798;2022-11-23T03:17:12;1.60;;;0.60;;
63394;SDS011;49531;-34.520;150.798;2022-11-23T03:19:40;1.95;;;0.50;;
63394;SDS011;49531;-34.520;150.798;2022-11-23T03:22:08;1.20;;;0.55;;
63394;SDS011;49531;-34.520;150.798;2022-11-23T03:24:36;0.90;;;0.52;;
63394;SDS011;49531;-34.520;150.798;2022-11-23T03:27:04;0.47;;;0.40;;
63394;SDS011;49531;-34.520;150.798;2022-11-23T03:29:32;2.28;;;0.50;;
63394;SDS011;49531;-34.520;150.798;2022-11-23T03:32:00;2.03;;;0.40;;
63394;SDS011;49531;-34.520;150.798;2022-11-23T03:34:29;1.30;;;0.50;;
63394;SDS011;49531;-34.520;150.798;2022-11-23T03:36:57;0.57;;;0.40;;
63394;SDS011;49531;-34.520;150.798;2022-11-23T03:39:25;1.10;;;0.40;;
63394;SDS011;49531;-34.520;150.798;2022-11-23T03:41:53;0.43;;;0.43;;
63394;SDS011;49531;-34.520;150.798;2022-11-23T03:44:21;0.30;;;0.30;;
63394;SDS011;49531;-34.520;150.798;2022-11-23T03:46:49;0.77;;;0.50;;
63394;SDS011;49531;-34.520;150.798;2022-11-23T03:49:17;1.33;;;0.47;;
63394;SDS011;49531;-34.520;150.798;2022-11-23T03:51:45;0.40;;;0.40;;
63394;SDS011;49531;-34.520;150.798;2022-11-23T03:54:13;0.30;;;0.30;;
63394;SDS011;49531;-34.520;150.798;2022-11-23T03:56:41;0.43;;;0.35;;
63394;SDS011;49531;-34.520;150.798;2022-11-23T03:59:09;0.93;;;0.50;;
63394;SDS011;49531;-34.520;150.798;2022-11-23T04:01:37;0.30;;;0.30;;
63394;SDS011;49531;-34.520;150.798;2022-11-23T04:04:06;0.82;;;0.60;;
63394;SDS011;49531;-34.520;150.798;2022-11-23T04:06:35;0.85;;;0.40;;
63394;SDS011;49531;-34.520;150.798;2022-11-23T04:09:03;0.43;;;0.30;;
63394;SDS011;49531;-34.520;150.798;2022-11-23T04:11:31;1.20;;;0.50;;
63394;SDS011;49531;-34.520;150.798;2022-11-23T04:13:59;0.40;;;0.40;;
63394;SDS011;49531;-34.520;150.798;2022-11-23T04:16:27;0.55;;;0.40;;
63394;SDS011;49531;-34.520;150.798;2022-11-23T04:18:55;0.80;;;0.40;;
63394;SDS011;49531;-34.520;150.798;2022-11-23T04:21:23;1.40;;;0.50;;
63394;SDS011;49531;-34.520;150.798;2022-11-23T04:23:51;0.80;;;0.50;;
63394;SDS011;49531;-34.520;150.798;2022-11-23T04:26:19;1.13;;;0.40;;
63394;SDS011;49531;-34.520;150.798;2022-11-23T04:28:47;0.40;;;0.40;;
63394;SDS011;49531;-34.520;150.798;2022-11-23T04:31:15;0.30;;;0.30;;
63394;SDS011;49531;-34.520;150.798;2022-11-23T04:33:43;0.50;;;0.40;;
63394;SDS011;49531;-34.520;150.798;2022-11-23T04:36:11;0.93;;;0.40;;
63394;SDS011;49531;-34.520;150.798;2022-11-23T04:38:39;0.43;;;0.40;;
63394;SDS011;49531;-34.520;150.798;2022-11-23T04:41:07;1.25;;;0.32;;
63394;SDS011;49531;-34.520;150.798;2022-11-23T04:43:35;1.45;;;0.70;;
63394;SDS011;49531;-34.520;150.798;2022-11-23T04:46:04;2.28;;;0.43;;
63394;SDS011;49531;-34.520;150.798;2022-11-23T04:48:32;0.30;;;0.30;;
63394;SDS011;49531;-34.520;150.798;2022-11-23T04:51:00;1.52;;;0.60;;
63394;SDS011;49531;-34.520;150.798;2022-11-23T04:53:28;0.40;;;0.40;;
63394;SDS011;49531;-34.520;150.798;2022-11-23T04:55:56;1.85;;;0.50;;
63394;SDS011;49531;-34.520;150.798;2022-11-23T04:58:24;2.50;;;0.40;;
63394;SDS011;49531;-34.520;150.798;2022-11-23T05:00:52;1.25;;;0.40;;
63394;SDS011;49531;-34.520;150.798;2022-11-23T05:03:20;1.23;;;0.50;;
63394;SDS011;49531;-34.520;150.798;2022-11-23T05:05:48;0.47;;;0.40;;
63394;SDS011;49531;-34.520;150.798;2022-11-23T05:08:17;0.40;;;0.40;;
63394;SDS011;49531;-34.520;150.798;2022-11-23T05:10:45;2.08;;;0.40;;
63394;SDS011;49531;-34.520;150.798;2022-11-23T05:13:13;1.20;;;0.50;;
63394;SDS011;49531;-34.520;150.798;2022-11-23T05:15:41;1.23;;;0.57;;
63394;SDS011;49531;-34.520;150.798;2022-11-23T05:18:10;3.60;;;0.50;;
63394;SDS011;49531;-34.520;150.798;2022-11-23T05:20:38;0.40;;;0.35;;
63394;SDS011;49531;-34.520;150.798;2022-11-23T05:23:06;0.80;;;0.55;;
63394;SDS011;49531;-34.520;150.798;2022-11-23T05:25:35;0.68;;;0.55;;
63394;SDS011;49531;-34.520;150.798;2022-11-23T05:28:04;0.40;;;0.40;;
63394;SDS011;49531;-34.520;150.798;2022-11-23T05:30:32;0.73;;;0.50;;
63394;SDS011;49531;-34.520;150.798;2022-11-23T05:33:00;0.65;;;0.43;;
63394;SDS011;49531;-34.520;150.798;2022-11-23T05:35:29;1.60;;;0.40;;
63394;SDS011;49531;-34.520;150.798;2022-11-23T05:37:58;0.52;;;0.40;;
63394;SDS011;49531;-34.520;150.798;2022-11-23T05:40:26;0.47;;;0.40;;
63394;SDS011;49531;-34.520;150.798;2022-11-23T05:42:54;0.80;;;0.60;;
63394;SDS011;49531;-34.520;150.798;2022-11-23T05:45:23;0.68;;;0.40;;
63394;SDS011;49531;-34.520;150.798;2022-11-23T05:47:52;0.40;;;0.40;;
63394;SDS011;49531;-34.520;150.798;2022-11-23T05:50:23;1.38;;;0.40;;
63394;SDS011;49531;-34.520;150.798;2022-11-23T05:52:54;2.38;;;0.63;;
63394;SDS011;49531;-34.520;150.798;2022-11-23T05:55:23;0.68;;;0.40;;
63394;SDS011;49531;-34.520;150.798;2022-11-23T05:57:52;0.70;;;0.47;;
63394;SDS011;49531;-34.520;150.798;2022-11-23T06:00:20;1.02;;;0.50;;
63394;SDS011;49531;-34.520;150.798;2022-11-23T06:02:48;0.35;;;0.35;;
63394;SDS011;49531;-34.520;150.798;2022-11-23T06:05:16;3.75;;;0.50;;
63394;SDS011;49531;-34.520;150.798;2022-11-23T06:07:45;0.95;;;0.45;;
63394;SDS011;49531;-34.520;150.798;2022-11-23T06:10:18;1.45;;;0.70;;
63394;SDS011;49531;-34.520;150.798;2022-11-23T06:12:46;1.33;;;0.57;;
63394;SDS011;49531;-34.520;150.798;2022-11-23T06:15:15;1.58;;;0.50;;
63394;SDS011;49531;-34.520;150.798;2022-11-23T06:17:43;1.23;;;0.60;;
63394;SDS011;49531;-34.520;150.798;2022-11-23T06:20:11;0.57;;;0.40;;
63394;SDS011;49531;-34.520;150.798;2022-11-23T06:22:39;1.20;;;0.40;;
63394;SDS011;49531;-34.520;150.798;2022-11-23T06:25:11;0.80;;;0.50;;
63394;SDS011;49531;-34.520;150.798;2022-11-23T06:27:39;0.68;;;0.32;;
63394;SDS011;49531;-34.520;150.798;2022-11-23T06:30:07;1.05;;;0.52;;
63394;SDS011;49531;-34.520;150.798;2022-11-23T06:32:35;1.42;;;0.60;;
63394;SDS011;49531;-34.520;150.798;2022-11-23T06:35:03;1.25;;;0.60;;
63394;SDS011;49531;-34.520;150.798;2022-11-23T06:37:32;0.55;;;0.40;;
63394;SDS011;49531;-34.520;150.798;2022-11-23T06:40:00;3.28;;;0.50;;
63394;SDS011;49531;-34.520;150.798;2022-11-23T06:42:28;1.83;;;0.43;;
63394;SDS011;49531;-34.520;150.798;2022-11-23T06:44:56;0.73;;;0.50;;
63394;SDS011;49531;-34.520;150.798;2022-11-23T06:47:24;0.47;;;0.40;;
63394;SDS011;49531;-34.520;150.798;2022-11-23T06:49:53;0.80;;;0.40;;
63394;SDS011;49531;-34.520;150.798;2022-11-23T06:52:21;1.77;;;1.15;;
63394;SDS011;49531;-34.520;150.798;2022-11-23T06:54:49;0.98;;;0.50;;
63394;SDS011;49531;-34.520;150.798;2022-11-23T06:57:17;0.73;;;0.50;;
63394;SDS011;49531;-34.520;150.798;2022-11-23T06:59:46;0.32;;;0.32;;
63394;SDS011;49531;-34.520;150.798;2022-11-23T07:02:14;1.10;;;0.40;;
63394;SDS011;49531;-34.520;150.798;2022-11-23T07:04:42;0.45;;;0.30;;
63394;SDS011;49531;-34.520;150.798;2022-11-23T07:07:10;0.93;;;0.50;;
63394;SDS011;49531;-34.520;150.798;2022-11-23T07:09:39;0.43;;;0.40;;
63394;SDS011;49531;-34.520;150.798;2022-11-23T07:12:07;1.35;;;0.50;;
63394;SDS011;49531;-34.520;150.798;2022-11-23T07:14:35;0.50;;;0.50;;
63394;SDS011;49531;-34.520;150.798;2022-11-23T07:17:03;0.68;;;0.50;;
63394;SDS011;49531;-34.520;150.798;2022-11-23T07:19:31;0.90;;;0.47;;
63394;SDS011;49531;-34.520;150.798;2022-11-23T07:21:59;0.40;;;0.40;;
63394;SDS011;49531;-34.520;150.798;2022-11-23T07:24:27;2.40;;;0.40;;
63394;SDS011;49531;-34.520;150.798;2022-11-23T07:26:55;1.05;;;0.40;;
63394;SDS011;49531;-34.520;150.798;2022-11-23T07:29:23;0.40;;;0.40;;
63394;SDS011;49531;-34.520;150.798;2022-11-23T07:31:51;2.58;;;0.50;;
63394;SDS011;49531;-34.520;150.798;2022-11-23T07:34:19;1.40;;;0.40;;
63394;SDS011;49531;-34.520;150.798;2022-11-23T07:36:47;1.27;;;0.40;;
63394;SDS011;49531;-34.520;150.798;2022-11-23T07:39:15;0.60;;;0.40;;
63394;SDS011;49531;-34.520;150.798;2022-11-23T07:41:43;0.63;;;0.50;;
63394;SDS011;49531;-34.520;150.798;2022-11-23T07:44:14;0.73;;;0.50;;
63394;SDS011;49531;-34.520;150.798;2022-11-23T07:46:43;0.82;;;0.50;;
63394;SDS011;49531;-34.520;150.798;2022-11-23T07:49:11;1.10;;;0.40;;
63394;SDS011;49531;-34.520;150.798;2022-11-23T07:51:38;0.55;;;0.50;;
63394;SDS011;49531;-34.520;150.798;2022-11-23T07:54:06;1.20;;;0.40;;
63394;SDS011;49531;-34.520;150.798;2022-11-23T07:56:34;0.40;;;0.40;;
63394;SDS011;49531;-34.520;150.798;2022-11-23T07:59:03;0.73;;;0.40;;
63394;SDS011;49531;-34.520;150.798;2022-11-23T08:01:31;0.30;;;0.30;;
63394;SDS011;49531;-34.520;150.798;2022-11-23T08:03:59;0.65;;;0.40;;
63394;SDS011;49531;-34.520;150.798;2022-11-23T08:06:27;0.57;;;0.40;;
63394;SDS011;49531;-34.520;150.798;2022-11-23T08:08:56;1.05;;;0.50;;
63394;SDS011;49531;-34.520;150.798;2022-11-23T08:11:25;2.92;;;0.52;;
63394;SDS011;49531;-34.520;150.798;2022-11-23T08:13:54;2.60;;;0.45;;
63394;SDS011;49531;-34.520;150.798;2022-11-23T08:16:22;0.47;;;0.45;;
63394;SDS011;49531;-34.520;150.798;2022-11-23T08:18:50;1.25;;;0.50;;
63394;SDS011;49531;-34.520;150.798;2022-11-23T08:21:18;0.63;;;0.52;;
63394;SDS011;49531;-34.520;150.798;2022-11-23T08:23:47;0.80;;;0.40;;
63394;SDS011;49531;-34.520;150.798;2022-11-23T08:26:14;0.93;;;0.50;;
63394;SDS011;49531;-34.520;150.798;2022-11-23T08:28:42;1.40;;;0.40;;
63394;SDS011;49531;-34.520;150.798;2022-11-23T08:31:11;0.82;;;0.47;;
63394;SDS011;49531;-34.520;150.798;2022-11-23T08:33:40;0.88;;;0.40;;
63394;SDS011;49531;-34.520;150.798;2022-11-23T08:36:08;0.40;;;0.30;;
63394;SDS011;49531;-34.520;150.798;2022-11-23T08:38:36;0.60;;;0.50;;
63394;SDS011;49531;-34.520;150.798;2022-11-23T08:41:04;0.40;;;0.40;;
63394;SDS011;49531;-34.520;150.798;2022-11-23T08:43:32;1.15;;;0.32;;
63394;SDS011;49531;-34.520;150.798;2022-11-23T08:46:01;1.85;;;0.45;;
63394;SDS011;49531;-34.520;150.798;2022-11-23T08:48:30;4.85;;;0.57;;
63394;SDS011;49531;-34.520;150.798;2022-11-23T08:50:58;0.75;;;0.40;;
63394;SDS011;49531;-34.520;150.798;2022-11-23T08:53:26;0.82;;;0.45;;
63394;SDS011;49531;-34.520;150.798;2022-11-23T08:55:54;0.40;;;0.40;;
63394;SDS011;49531;-34.520;150.798;2022-11-23T08:58:26;2.55;;;0.52;;
63394;SDS011;49531;-34.520;150.798;2022-11-23T09:00:54;1.02;;;0.50;;
63394;SDS011;49531;-34.520;150.798;2022-11-23T09:03:22;1.02;;;0.45;;
63394;SDS011;49531;-34.520;150.798;2022-11-23T09:05:50;0.38;;;0.38;;
63394;SDS011;49531;-34.520;150.798;2022-11-23T09:08:19;1.83;;;0.60;;
63394;SDS011;49531;-34.520;150.798;2022-11-23T09:10:47;0.60;;;0.30;;
63394;SDS011;49531;-34.520;150.798;2022-11-23T09:13:16;0.90;;;0.50;;
63394;SDS011;49531;-34.520;150.798;2022-11-23T09:15:44;0.85;;;0.40;;
63394;SDS011;49531;-34.520;150.798;2022-11-23T09:18:12;0.55;;;0.45;;
63394;SDS011;49531;-34.520;150.798;2022-11-23T09:20:40;1.85;;;0.50;;
63394;SDS011;49531;-34.520;150.798;2022-11-23T09:23:09;0.73;;;0.50;;
63394;SDS011;49531;-34.520;150.798;2022-11-23T09:25:37;0.90;;;0.45;;
63394;SDS011;49531;-34.520;150.798;2022-11-23T09:28:05;1.13;;;0.40;;
63394;SDS011;49531;-34.520;150.798;2022-11-23T09:30:33;2.15;;;0.40;;
63394;SDS011;49531;-34.520;150.798;2022-11-23T09:33:01;0.95;;;0.40;;
63394;SDS011;49531;-34.520;150.798;2022-11-23T09:35:29;0.60;;;0.50;;
63394;SDS011;49531;-34.520;150.798;2022-11-23T09:37:57;0.50;;;0.50;;
63394;SDS011;49531;-34.520;150.798;2022-11-23T09:40:27;2.58;;;0.50;;
63394;SDS011;49531;-34.520;150.798;2022-11-23T09:43:26;2.15;;;0.50;;
63394;SDS011;49531;-34.520;150.798;2022-11-23T09:45:58;0.82;;;0.50;;
63394;SDS011;49531;-34.520;150.798;2022-11-23T09:48:38;0.82;;;0.40;;
63394;SDS011;49531;-34.520;150.798;2022-11-23T09:51:20;1.45;;;0.70;;
63394;SDS011;49531;-34.520;150.798;2022-11-23T09:53:51;0.50;;;0.50;;
63394;SDS011;49531;-34.520;150.798;2022-11-23T09:56:23;1.95;;;0.50;;
63394;SDS011;49531;-34.520;150.798;2022-11-23T09:58:55;0.38;;;0.38;;
63394;SDS011;49531;-34.520;150.798;2022-11-23T10:01:26;0.75;;;0.50;;
63394;SDS011;49531;-34.520;150.798;2022-11-23T10:03:55;0.73;;;0.50;;
63394;SDS011;49531;-34.520;150.798;2022-11-23T10:06:24;1.83;;;0.43;;
63394;SDS011;49531;-34.520;150.798;2022-11-23T10:09:06;0.73;;;0.50;;
63394;SDS011;49531;-34.520;150.798;2022-11-23T10:11:57;0.50;;;0.50;;
63394;SDS011;49531;-34.520;150.798;2022-11-23T10:20:36;0.85;;;0.50;;
63394;SDS011;49531;-34.520;150.798;2022-11-23T10:26:15;0.65;;;0.45;;
63394;SDS011;49531;-34.520;150.798;2022-11-23T10:28:45;1.23;;;0.60;;
63394;SDS011;49531;-34.520;150.798;2022-11-23T10:31:16;1.98;;;0.50;;
63394;SDS011;49531;-34.520;150.798;2022-11-23T10:33:49;1.08;;;0.55;;
63394;SDS011;49531;-34.520;150.798;2022-11-23T10:36:26;1.40;;;0.70;;
63394;SDS011;49531;-34.520;150.798;2022-11-23T10:38:56;2.22;;;0.80;;
63394;SDS011;49531;-34.520;150.798;2022-11-23T10:41:28;2.25;;;0.82;;
63394;SDS011;49531;-34.520;150.798;2022-11-23T10:46:52;2.15;;;0.90;;
63394;SDS011;49531;-34.520;150.798;2022-11-23T10:49:23;2.30;;;0.93;;
63394;SDS011;49531;-34.520;150.798;2022-11-23T10:51:57;1.88;;;0.85;;
63394;SDS011;49531;-34.520;150.798;2022-11-23T10:54:31;2.55;;;1.00;;
63394;SDS011;49531;-34.520;150.798;2022-11-23T10:57:43;2.88;;;0.93;;
63394;SDS011;49531;-34.520;150.798;2022-11-23T11:00:00;2.97;;;0.85;;
63394;SDS011;49531;-34.520;150.798;2022-11-23T11:02:45;6.85;;;1.10;;
63394;SDS011;49531;-34.520;150.798;2022-11-23T11:05:27;3.47;;;0.93;;
63394;SDS011;49531;-34.520;150.798;2022-11-23T11:07:59;2.53;;;1.10;;
63394;SDS011;49531;-34.520;150.798;2022-11-23T11:10:39;4.45;;;1.25;;
63394;SDS011;49531;-34.520;150.798;2022-11-23T11:13:22;3.30;;;1.00;;
63394;SDS011;49531;-34.520;150.798;2022-11-23T11:15:58;2.90;;;1.20;;
63394;SDS011;49531;-34.520;150.798;2022-11-23T11:18:30;5.72;;;1.27;;
63394;SDS011;49531;-34.520;150.798;2022-11-23T11:21:04;4.72;;;1.40;;
63394;SDS011;49531;-34.520;150.798;2022-11-23T11:23:42;4.15;;;1.33;;
63394;SDS011;49531;-34.520;150.798;2022-11-23T11:26:20;6.30;;;1.20;;
63394;SDS011;49531;-34.520;150.798;2022-11-23T11:28:51;3.85;;;1.40;;
63394;SDS011;49531;-34.520;150.798;2022-11-23T11:31:24;3.67;;;1.33;;
63394;SDS011;49531;-34.520;150.798;2022-11-23T11:34:08;4.57;;;1.40;;
63394;SDS011;49531;-34.520;150.798;2022-11-23T11:36:47;3.17;;;1.20;;
63394;SDS011;49531;-34.520;150.798;2022-11-23T11:39:28;3.42;;;1.30;;
63394;SDS011;49531;-34.520;150.798;2022-11-23T11:42:06;5.70;;;1.60;;
63394;SDS011;49531;-34.520;150.798;2022-11-23T11:44:42;4.25;;;1.30;;
63394;SDS011;49531;-34.520;150.798;2022-11-23T11:47:26;3.17;;;1.40;;
63394;SDS011;49531;-34.520;150.798;2022-11-23T11:50:05;5.07;;;1.50;;
63394;SDS011;49531;-34.520;150.798;2022-11-23T11:52:45;4.38;;;1.27;;
63394;SDS011;49531;-34.520;150.798;2022-11-23T11:55:18;3.92;;;1.50;;
63394;SDS011;49531;-34.520;150.798;2022-11-23T11:57:53;5.63;;;1.60;;
63394;SDS011;49531;-34.520;150.798;2022-11-23T12:00:27;4.30;;;1.40;;
63394;SDS011;49531;-34.520;150.798;2022-11-23T12:03:03;6.10;;;1.40;;
63394;SDS011;49531;-34.520;150.798;2022-11-23T12:05:54;2.72;;;1.50;;
63394;SDS011;49531;-34.520;150.798;2022-11-23T12:08:39;4.85;;;1.50;;
63394;SDS011;49531;-34.520;150.798;2022-11-23T12:11:17;7.13;;;1.50;;
63394;SDS011;49531;-34.520;150.798;2022-11-23T12:13:45;3.08;;;1.30;;
63394;SDS011;49531;-34.520;150.798;2022-11-23T12:16:28;4.35;;;1.30;;
63394;SDS011;49531;-34.520;150.798;2022-11-23T12:19:08;4.15;;;1.40;;
63394;SDS011;49531;-34.520;150.798;2022-11-23T12:21:51;4.25;;;1.30;;
63394;SDS011;49531;-34.520;150.798;2022-11-23T12:24:45;5.40;;;1.40;;
63394;SDS011;49531;-34.520;150.798;2022-11-23T12:30:29;4.35;;;1.60;;
63394;SDS011;49531;-34.520;150.798;2022-11-23T12:33:26;3.95;;;1.45;;
63394;SDS011;49531;-34.520;150.798;2022-11-23T12:36:19;3.25;;;1.40;;
63394;SDS011;49531;-34.520;150.798;2022-11-23T12:39:12;4.97;;;1.80;;
63394;SDS011;49531;-34.520;150.798;2022-11-23T12:42:09;4.32;;;1.50;;
63394;SDS011;49531;-34.520;150.798;2022-11-23T12:45:13;4.00;;;1.40;;
63394;SDS011;49531;-34.520;150.798;2022-11-23T12:47:57;2.45;;;1.30;;
63394;SDS011;49531;-34.520;150.798;2022-11-23T12:50:42;4.13;;;1.60;;
63394;SDS011;49531;-34.520;150.798;2022-11-23T12:53:37;4.03;;;1.67;;
63394;SDS011;49531;-34.520;150.798;2022-11-23T12:56:28;3.70;;;1.40;;
63394;SDS011;49531;-34.520;150.798;2022-11-23T12:59:18;4.72;;;1.40;;
63394;SDS011;49531;-34.520;150.798;2022-11-23T13:01:49;3.05;;;1.45;;
63394;SDS011;49531;-34.520;150.798;2022-11-23T13:04:35;5.63;;;1.58;;
63394;SDS011;49531;-34.520;150.798;2022-11-23T13:07:37;4.18;;;1.65;;
63394;SDS011;49531;-34.520;150.798;2022-11-23T13:10:27;4.07;;;1.48;;
63394;SDS011;49531;-34.520;150.798;2022-11-23T13:13:09;3.97;;;1.60;;
63394;SDS011;49531;-34.520;150.798;2022-11-23T13:18:48;3.67;;;1.42;;
63394;SDS011;49531;-34.520;150.798;2022-11-23T13:21:38;5.55;;;1.52;;
63394;SDS011;49531;-34.520;150.798;2022-11-23T13:27:29;4.38;;;1.52;;
63394;SDS011;49531;-34.520;150.798;2022-11-23T13:29:54;4.15;;;1.42;;
63394;SDS011;49531;-34.520;150.798;2022-11-23T13:38:23;5.10;;;1.60;;
63394;SDS011;49531;-34.520;150.798;2022-11-23T13:40:52;3.88;;;1.45;;
63394;SDS011;49531;-34.520;150.798;2022-11-23T13:43:26;6.25;;;1.60;;
63394;SDS011;49531;-34.520;150.798;2022-11-23T13:46:17;3.78;;;1.50;;
63394;SDS011;49531;-34.520;150.798;2022-11-23T13:48:55;4.57;;;1.48;;
63394;SDS011;49531;-34.520;150.798;2022-11-23T13:51:27;3.83;;;1.38;;
63394;SDS011;49531;-34.520;150.798;2022-11-23T13:54:03;4.72;;;1.40;;
63394;SDS011;49531;-34.520;150.798;2022-11-23T13:56:44;4.32;;;1.40;;
63394;SDS011;49531;-34.520;150.798;2022-11-23T13:59:26;7.32;;;1.42;;
63394;SDS011;49531;-34.520;150.798;2022-11-23T14:01:58;4.20;;;1.40;;
63394;SDS011;49531;-34.520;150.798;2022-11-23T14:04:46;4.15;;;1.52;;
63394;SDS011;49531;-34.520;150.798;2022-11-23T14:07:15;4.38;;;1.30;;
63394;SDS011;49531;-34.520;150.798;2022-11-23T14:09:54;3.95;;;1.40;;
63394;SDS011;49531;-34.520;150.798;2022-11-23T14:12:33;5.53;;;1.50;;
63394;SDS011;49531;-34.520;150.798;2022-11-23T14:15:23;4.30;;;1.27;;
63394;SDS011;49531;-34.520;150.798;2022-11-23T14:20:56;3.35;;;1.33;;
63394;SDS011;49531;-34.520;150.798;2022-11-23T14:26:34;5.35;;;1.52;;
63394;SDS011;49531;-34.520;150.798;2022-11-23T14:29:38;4.97;;;1.60;;
63394;SDS011;49531;-34.520;150.798;2022-11-23T14:32:26;4.47;;;1.65;;
63394;SDS011;49531;-34.520;150.798;2022-11-23T14:35:11;4.85;;;1.50;;
63394;SDS011;49531;-34.520;150.798;2022-11-23T14:38:00;4.65;;;1.45;;
63394;SDS011;49531;-34.520;150.798;2022-11-23T14:40:58;4.05;;;1.40;;
63394;SDS011;49531;-34.520;150.798;2022-11-23T14:43:39;6.65;;;1.50;;
63394;SDS011;49531;-34.520;150.798;2022-11-23T14:46:13;5.38;;;1.55;;
63394;SDS011;49531;-34.520;150.798;2022-11-23T14:48:45;4.32;;;1.70;;
63394;SDS011;49531;-34.520;150.798;2022-11-23T14:51:18;2.28;;;1.20;;
63394;SDS011;49531;-34.520;150.798;2022-11-23T14:53:55;3.65;;;1.42;;
63394;SDS011;49531;-34.520;150.798;2022-11-23T14:56:30;4.03;;;1.45;;
63394;SDS011;49531;-34.520;150.798;2022-11-23T14:59:04;3.65;;;1.40;;
63394;SDS011;49531;-34.520;150.798;2022-11-23T15:01:35;2.15;;;1.20;;
63394;SDS011;49531;-34.520;150.798;2022-11-23T15:04:08;3.67;;;1.35;;
63394;SDS011;49531;-34.520;150.798;2022-11-23T15:06:47;3.67;;;1.20;;
63394;SDS011;49531;-34.520;150.798;2022-11-23T15:09:22;3.33;;;1.40;;
63394;SDS011;49531;-34.520;150.798;2022-11-23T15:12:18;4.60;;;1.55;;